createdAt,value
2019-04-01T00:02:55.798Z,17.1
2019-04-01T00:08:00.786Z,17
2019-04-01T00:13:06.077Z,18.6
2019-04-01T00:18:11.483Z,18.6
2019-04-01T00:23:16.772Z,17.6
2019-04-01T00:28:22.173Z,16.3
2019-04-01T00:33:25.995Z,14.8
2019-04-01T00:38:33.022Z,14.4
2019-04-01T00:43:38.332Z,14.3
2019-04-01T00:48:43.830Z,14.1
2019-04-01T00:53:49.451Z,13.3
2019-04-01T00:58:54.441Z,13.7
2019-04-01T01:03:59.583Z,14
2019-04-01T01:09:05.906Z,13.7
2019-04-01T01:14:11.114Z,14.1
2019-04-01T01:19:16.533Z,14.4
2019-04-01T01:24:21.705Z,14.1
2019-04-01T01:29:26.779Z,14
2019-04-01T01:34:32.091Z,14.3
2019-04-01T01:39:37.367Z,14.6
2019-04-01T01:44:41.333Z,13.6
2019-04-01T01:49:46.574Z,14.1
2019-04-01T01:54:51.804Z,14.3
2019-04-01T01:59:56.908Z,14.8
2019-04-01T02:05:02.134Z,14.9
2019-04-01T02:10:07.458Z,15.3
2019-04-01T02:15:12.584Z,15.6
2019-04-01T02:20:17.887Z,15.4
2019-04-01T02:25:21.793Z,15.9
2019-04-01T02:30:27.118Z,16
2019-04-01T02:35:32.357Z,16
2019-04-01T02:40:37.847Z,16.9
2019-04-01T02:45:43.039Z,16.3
2019-04-01T02:50:48.373Z,17.5
2019-04-01T02:55:53.816Z,16.6
2019-04-01T03:00:57.694Z,17.5
2019-04-01T03:06:02.774Z,18.1
2019-04-01T03:11:11.653Z,18.6
2019-04-01T03:16:17.238Z,18.5
2019-04-01T03:21:22.408Z,18.1
2019-04-01T03:26:26.276Z,19
2019-04-01T03:31:31.587Z,18.9
2019-04-01T03:36:37.424Z,19.6
2019-04-01T03:41:42.543Z,19.8
2019-04-01T03:46:47.915Z,20.1
2019-04-01T03:51:52.911Z,21
2019-04-01T03:56:58.345Z,21
2019-04-01T04:02:03.512Z,21.1
2019-04-01T04:07:09.222Z,22.2
2019-04-01T04:12:14.727Z,23.7
2019-04-01T04:17:21.535Z,22.8
2019-04-01T04:22:27.130Z,24.5
2019-04-01T04:27:32.348Z,24.1
2019-04-01T04:32:37.846Z,25.1
2019-04-01T04:37:43.507Z,26.3
2019-04-01T04:42:48.694Z,26
2019-04-01T04:47:54.146Z,26.6
2019-04-01T04:52:59.421Z,27.2
2019-04-01T04:58:03.229Z,28
2019-04-01T05:03:08.223Z,28.1
2019-04-01T05:08:13.608Z,29.7
2019-04-01T05:13:18.588Z,29.5
2019-04-01T05:18:23.720Z,29.7
2019-04-01T05:23:28.982Z,30.9
2019-04-01T05:28:32.808Z,30.6
2019-04-01T05:33:37.881Z,32.2
2019-04-01T05:38:43.611Z,32.8
2019-04-01T05:43:48.707Z,33.3
2019-04-01T05:48:53.789Z,32.9
2019-04-01T05:53:59.139Z,31.3
2019-04-01T05:59:04.518Z,31.2
2019-04-01T06:04:09.726Z,29.4
2019-04-01T06:09:14.922Z,30.2
2019-04-01T06:14:20.039Z,29.6
2019-04-01T06:19:25.431Z,28.4
2019-04-01T06:24:30.517Z,29.1
2019-04-01T06:29:35.927Z,28.2
2019-04-01T06:34:53.594Z,27.3
2019-04-01T06:39:48.854Z,24.6
2019-04-01T06:44:52.429Z,24.5
2019-04-01T06:49:57.683Z,22.8
2019-04-01T06:55:01.301Z,21.4
2019-04-01T07:00:06.659Z,20.2
2019-04-01T07:05:13.680Z,18.6
2019-04-01T07:10:19.080Z,17.6
2019-04-01T07:15:28.294Z,16.3
2019-04-01T07:20:33.589Z,15.8
2019-04-01T07:25:38.866Z,15.9
2019-04-01T07:30:44.341Z,14.7
2019-04-01T07:35:49.549Z,17.3
2019-04-01T07:40:54.992Z,15.5
2019-04-01T07:46:03.547Z,13.5
2019-04-01T07:51:12.540Z,12.7
2019-04-01T07:56:16.698Z,13.2
2019-04-01T08:01:21.694Z,12
2019-04-01T08:06:25.627Z,11.9
2019-04-01T08:11:29.382Z,13.1
2019-04-01T08:16:34.538Z,11.6
2019-04-01T08:21:39.601Z,12.3
2019-04-01T08:26:47.750Z,13.5
2019-04-01T08:31:53.518Z,13
2019-04-01T08:36:58.740Z,11.9
2019-04-01T08:42:04.852Z,14.3
2019-04-01T08:47:10.236Z,11.6
2019-04-01T08:52:14.209Z,11.5
2019-04-01T08:57:19.159Z,12
2019-04-01T09:02:24.397Z,10.2
2019-04-01T09:07:28.094Z,11.9
2019-04-01T09:12:33.180Z,10.5
2019-04-01T09:17:41.177Z,10.5
2019-04-01T09:22:49.332Z,10.9
2019-04-01T09:27:54.604Z,11.5
2019-04-01T09:32:59.930Z,9.8
2019-04-01T09:38:05.071Z,10.3
2019-04-01T09:43:12.310Z,10.5
2019-04-01T09:48:19.100Z,10.3
2019-04-01T09:53:28.050Z,11.7
2019-04-01T09:58:33.435Z,9.5
2019-04-01T10:03:37.203Z,8.4
2019-04-01T10:08:43.794Z,8.5
2019-04-01T10:13:49.313Z,12.1
2019-04-01T10:18:54.464Z,8.8
2019-04-01T10:23:59.796Z,7.7
2019-04-01T10:29:05.283Z,8.5
2019-04-01T10:34:10.680Z,8.8
2019-04-01T10:39:16.151Z,8.4
2019-04-01T10:44:21.656Z,8.8
2019-04-01T10:49:27.189Z,9.1
2019-04-01T10:54:36.452Z,9.5
2019-04-01T10:59:42.134Z,9
2019-04-01T11:04:48.337Z,9
2019-04-01T11:09:53.851Z,9.2
2019-04-01T11:15:02.343Z,8.9
2019-04-01T11:20:09.324Z,8.3
2019-04-01T11:25:15.021Z,8.6
2019-04-01T11:30:20.204Z,8.9
2019-04-01T11:35:25.858Z,8.5
2019-04-01T11:40:30.950Z,8.1
2019-04-01T11:45:36.629Z,8.3
2019-04-01T11:50:40.712Z,8
2019-04-01T11:55:45.980Z,8.5
2019-04-01T12:00:51.112Z,7.8
2019-04-01T12:05:56.532Z,8.1
2019-04-01T12:11:01.772Z,8.4
2019-04-01T12:16:07.914Z,9.1
2019-04-01T12:21:14.278Z,9.2
2019-04-01T12:26:19.498Z,10
2019-04-01T12:31:24.514Z,8.9
2019-04-01T12:36:29.719Z,8.6
2019-04-01T12:41:34.954Z,8.6
2019-04-01T12:46:40.199Z,8.1
2019-04-01T12:51:45.345Z,8.4
2019-04-01T12:56:50.538Z,8.1
2019-04-01T13:01:54.279Z,7.8
2019-04-01T13:06:59.799Z,8.4
2019-04-01T13:12:07.312Z,7.9
2019-04-01T13:17:12.624Z,8.2
2019-04-01T13:22:17.796Z,8
2019-04-01T13:27:23.315Z,8.3
2019-04-01T13:32:31.615Z,8.1
2019-04-01T13:37:37.343Z,7.4
2019-04-01T13:42:44.239Z,6.8
2019-04-01T13:47:50.729Z,7.3
2019-04-01T13:52:55.980Z,5.7
2019-04-01T13:58:01.186Z,6.3
2019-04-01T14:03:06.346Z,6
2019-04-01T14:08:14.803Z,5.9
2019-04-01T14:13:19.823Z,5.6
2019-04-01T14:18:25.275Z,5.7
2019-04-01T14:23:30.536Z,5.4
2019-04-01T14:28:36.108Z,5.6
2019-04-01T14:33:42.648Z,5.1
2019-04-01T14:38:47.628Z,5.2
2019-04-01T14:43:56.067Z,5.5
2019-04-01T14:49:03.768Z,5.7
2019-04-01T14:54:07.457Z,5
2019-04-01T14:59:15.361Z,5.2
2019-04-01T15:04:25.240Z,5.1
2019-04-01T15:09:24.302Z,5.1
2019-04-01T15:14:20.749Z,4.6
2019-04-01T15:19:27.977Z,4.8
2019-04-01T15:24:35.596Z,5.1
2019-04-01T15:29:40.628Z,5.1
2019-04-01T15:34:45.687Z,6.4
2019-04-01T15:39:52.960Z,5.6
2019-04-01T15:44:58.456Z,4.8
2019-04-01T15:51:16.312Z,5.6
2019-04-01T15:56:21.673Z,4.2
2019-04-01T16:01:31.339Z,4.5
2019-04-01T16:06:37.961Z,5.1
2019-04-01T16:11:43.249Z,4.8
2019-04-01T16:16:48.652Z,4.4
2019-04-01T16:21:54.336Z,4
2019-04-01T16:27:03.678Z,4.3
2019-04-01T16:32:08.847Z,4.1
2019-04-01T16:37:14.256Z,4.2
2019-04-01T16:42:20.304Z,3.8
2019-04-01T16:47:25.581Z,3.7
2019-04-01T16:52:30.744Z,3.8
2019-04-01T16:57:36.081Z,3.7
2019-04-01T17:02:42.268Z,4.3
2019-04-01T17:07:47.144Z,4.6
2019-04-01T17:12:50.718Z,4.6
2019-04-01T17:17:56.176Z,3.5
2019-04-01T17:23:02.325Z,4.3
2019-04-01T17:28:07.473Z,4
2019-04-01T17:33:12.451Z,4
2019-04-01T17:38:17.506Z,3.9
2019-04-01T17:43:26.828Z,4.2
2019-04-01T17:48:30.509Z,4.7
2019-04-01T17:53:36.860Z,5.7
2019-04-01T17:58:38.928Z,6.4
2019-04-01T18:03:44.025Z,5.8
2019-04-01T18:08:49.081Z,5.6
2019-04-01T18:13:54.739Z,4.7
2019-04-01T18:19:00.446Z,4.6
2019-04-01T18:24:06.076Z,5.3
2019-04-01T18:29:11.328Z,4
2019-04-01T18:34:16.442Z,3.8
2019-04-01T18:39:21.535Z,3.8
2019-04-01T18:44:26.626Z,3.7
2019-04-01T18:49:31.843Z,3.8
2019-04-01T18:54:37.327Z,4.6
2019-04-01T18:59:40.966Z,3.8
2019-04-01T19:04:46.061Z,3.7
2019-04-01T19:10:00.158Z,3.7
2019-04-01T19:15:03.415Z,3.7
2019-04-01T19:20:08.751Z,4
2019-04-01T19:25:15.950Z,3.6
2019-04-01T19:30:21.999Z,3.4
2019-04-01T19:35:27.525Z,4
2019-04-01T19:40:32.658Z,3.5
2019-04-01T19:45:36.645Z,3.6
2019-04-01T19:50:45.010Z,3.5
2019-04-01T19:55:48.853Z,3.3
2019-04-01T20:00:53.776Z,3.6
2019-04-01T20:05:58.711Z,3.9
2019-04-01T20:11:06.356Z,4.3
2019-04-01T20:16:13.328Z,4.3
2019-04-01T20:21:15.616Z,4.8
2019-04-01T20:26:20.912Z,4.8
2019-04-01T20:31:26.141Z,4.8
2019-04-01T20:36:32.608Z,4.2
2019-04-01T20:41:38.225Z,3.6
2019-04-01T20:46:42.264Z,3.6
2019-04-01T20:51:47.407Z,3.6
2019-04-01T20:56:52.539Z,3.6
2019-04-01T21:01:56.148Z,3.5
2019-04-01T21:07:01.653Z,4
2019-04-01T21:12:09.110Z,3.6
2019-04-01T21:17:14.846Z,3.5
2019-04-01T21:22:20.003Z,3.5
2019-04-01T21:27:25.367Z,3.7
2019-04-01T21:32:30.608Z,3.8
2019-04-01T21:37:36.290Z,4.3
2019-04-01T21:42:44.091Z,4
2019-04-01T21:47:49.463Z,3.6
2019-04-01T21:52:54.545Z,4
2019-04-01T21:57:59.870Z,3.7
2019-04-01T22:03:05.440Z,3.7
2019-04-01T22:08:10.896Z,3.6
2019-04-01T22:13:16.120Z,3.7
2019-04-01T22:18:21.494Z,3.7
2019-04-01T22:23:26.782Z,4
2019-04-01T22:28:32.047Z,3.5
2019-04-01T22:33:36.978Z,7.4
2019-04-01T22:38:42.362Z,3.7
2019-04-01T22:43:47.823Z,5.4
2019-04-01T22:48:53.289Z,3.2
2019-04-01T22:53:58.338Z,3.5
2019-04-01T22:59:03.561Z,4
2019-04-01T23:04:09.778Z,3.3
2019-04-01T23:09:15.098Z,3.3
2019-04-01T23:14:20.297Z,3.6
2019-04-01T23:19:25.425Z,3.4
2019-04-01T23:24:30.837Z,3.8
2019-04-01T23:29:36.531Z,3.6
2019-04-01T23:34:42.339Z,3.9
2019-04-01T23:39:48.417Z,3.8
2019-04-01T23:44:53.534Z,4.2
2019-04-01T23:49:58.743Z,4.3
2019-04-01T23:55:02.437Z,4.5
